Time;durP1;ratioP1;P1;durP2;ratioP2;P2;SDS_P1;SDS_P2;PMS_P1;PMS_P2;Temp;Humidity;BMP_temperature;BMP_pressure;BME280_temperature;BME280_humidity;BME280_pressure;Samples;Min_cycle;Max_cycle;Signal;HPM_P1;HPM_P2
2021/09/16 00:01:46;;;;;;;68.33;16.20;;;;;;;;;;5094451;28;20486;-80
2021/09/16 00:04:13;;;;;;;68.70;13.77;;;;;;;;;;5094066;28;20471;-81
2021/09/16 00:06:42;;;;;;;73.13;16.17;;;;;;;;;;5094061;28;20451;-83
2021/09/16 00:09:09;;;;;;;70.57;16.00;;;;;;;;;;5095529;28;20466;-82
2021/09/16 00:11:36;;;;;;;69.03;15.33;;;;;;;;;;5093480;28;20449;-82
2021/09/16 00:14:04;;;;;;;69.23;15.07;;;;;;;;;;5094990;28;20479;-82
2021/09/16 00:16:31;;;;;;;69.10;15.13;;;;;;;;;;5091001;28;20453;-81
2021/09/16 00:18:58;;;;;;;66.60;13.80;;;;;;;;;;5094227;28;20442;-79
2021/09/16 00:21:25;;;;;;;68.73;11.80;;;;;;;;;;5094726;28;20849;-81
2021/09/16 00:23:54;;;;;;;68.90;15.47;;;;;;;;;;5094364;28;20452;-83
2021/09/16 00:26:21;;;;;;;71.30;19.50;;;;;;;;;;5093143;28;20458;-82
2021/09/16 00:28:48;;;;;;;76.00;24.97;;;;;;;;;;5094510;28;20446;-81
2021/09/16 00:31:15;;;;;;;70.27;16.30;;;;;;;;;;5094338;28;20962;-80
2021/09/16 00:33:43;;;;;;;71.90;15.40;;;;;;;;;;5093144;28;20458;-83
2021/09/16 00:36:10;;;;;;;72.00;17.60;;;;;;;;;;5093373;28;20478;-80
2021/09/16 00:38:37;;;;;;;73.43;17.13;;;;;;;;;;5094271;28;20788;-83
2021/09/16 00:41:07;;;;;;;71.90;19.90;;;;;;;;;;5094065;28;20456;-80
2021/09/16 00:43:34;;;;;;;70.30;16.07;;;;;;;;;;5093404;28;20543;-82
2021/09/16 00:46:05;;;;;;;70.17;17.07;;;;;;;;;;5093829;28;20485;-83
2021/09/16 00:48:32;;;;;;;69.07;15.40;;;;;;;;;;5093010;28;20457;-83
2021/09/16 00:50:59;;;;;;;72.07;17.17;;;;;;;;;;5093753;28;20442;-83
2021/09/16 00:53:28;;;;;;;71.27;24.43;;;;;;;;;;5092992;28;20866;-83
2021/09/16 00:55:55;;;;;;;69.37;14.87;;;;;;;;;;5093903;28;20526;-83
2021/09/16 00:58:25;;;;;;;67.80;15.30;;;;;;;;;;5092623;28;20449;-82
2021/09/16 01:00:52;;;;;;;74.33;15.23;;;;;;;;;;5093835;28;20980;-82
2021/09/16 01:03:19;;;;;;;82.00;18.60;;;;;;;;;;5093196;28;20573;-82
2021/09/16 01:05:46;;;;;;;71.90;19.60;;;;;;;;;;5093581;28;20470;-81
2021/09/16 01:08:13;;;;;;;69.50;16.03;;;;;;;;;;5092959;28;20450;-82
2021/09/16 01:10:41;;;;;;;72.03;16.60;;;;;;;;;;5093454;28;20449;-82
2021/09/16 01:13:10;;;;;;;70.40;16.27;;;;;;;;;;5093069;28;20972;-82
2021/09/16 01:15:39;;;;;;;69.13;16.70;;;;;;;;;;5093060;28;20467;-82
2021/09/16 01:18:06;;;;;;;71.33;17.23;;;;;;;;;;5092742;28;20453;-82
2021/09/16 01:20:33;;;;;;;71.10;18.30;;;;;;;;;;5093270;28;20460;-81
2021/09/16 01:23:01;;;;;;;74.80;23.10;;;;;;;;;;5092757;28;20485;-82
2021/09/16 01:25:29;;;;;;;75.17;19.50;;;;;;;;;;5092605;28;20473;-82
2021/09/16 01:27:57;;;;;;;73.73;23.53;;;;;;;;;;5091591;28;20470;-82
2021/09/16 01:30:25;;;;;;;73.87;22.30;;;;;;;;;;5085228;28;20446;-82
2021/09/16 01:32:54;;;;;;;74.63;22.17;;;;;;;;;;5092026;28;20449;-82
2021/09/16 01:35:22;;;;;;;72.77;18.87;;;;;;;;;;5092781;28;20474;-81
2021/09/16 01:37:49;;;;;;;72.20;17.83;;;;;;;;;;5092094;28;20446;-82
2021/09/16 01:40:17;;;;;;;71.67;20.30;;;;;;;;;;5092936;28;20454;-83
2021/09/16 01:42:45;;;;;;;73.27;18.93;;;;;;;;;;5092351;28;20481;-82
2021/09/16 01:45:13;;;;;;;70.30;15.50;;;;;;;;;;5092245;28;20474;-82
2021/09/16 01:47:40;;;;;;;71.97;18.50;;;;;;;;;;5091876;28;20874;-82
2021/09/16 01:50:08;;;;;;;73.60;16.10;;;;;;;;;;5093097;28;20445;-82
2021/09/16 01:52:35;;;;;;;72.10;17.00;;;;;;;;;;5092687;28;20442;-81
2021/09/16 01:55:02;;;;;;;69.23;15.80;;;;;;;;;;5092267;28;20469;-82
2021/09/16 01:57:31;;;;;;;71.13;18.93;;;;;;;;;;5091792;28;20835;-83
2021/09/16 01:59:58;;;;;;;69.47;14.20;;;;;;;;;;5092579;28;20443;-82
2021/09/16 02:02:25;;;;;;;71.83;13.70;;;;;;;;;;5092857;28;20498;-82
2021/09/16 02:04:52;;;;;;;69.13;14.40;;;;;;;;;;5094062;28;20501;-82
2021/09/16 02:07:19;;;;;;;73.53;16.80;;;;;;;;;;5093332;28;20444;-82
2021/09/16 02:09:47;;;;;;;70.83;16.77;;;;;;;;;;5093775;28;20454;-83
2021/09/16 02:12:14;;;;;;;69.70;16.10;;;;;;;;;;5093418;28;20453;-82
2021/09/16 02:14:42;;;;;;;69.30;17.33;;;;;;;;;;5092904;28;20480;-82
2021/09/16 02:17:09;;;;;;;70.10;16.97;;;;;;;;;;5092541;28;20456;-82
2021/09/16 02:19:36;;;;;;;69.67;15.43;;;;;;;;;;5093100;28;20454;-83
2021/09/16 02:22:04;;;;;;;68.80;18.63;;;;;;;;;;5092768;28;20511;-82
2021/09/16 02:24:31;;;;;;;71.47;16.97;;;;;;;;;;5087785;28;20479;-83
2021/09/16 02:26:59;;;;;;;69.97;18.10;;;;;;;;;;5091285;28;20482;-82
2021/09/16 02:29:26;;;;;;;71.40;15.57;;;;;;;;;;5092185;28;20452;-82
2021/09/16 02:31:54;;;;;;;70.87;19.83;;;;;;;;;;5093194;28;20450;-83
2021/09/16 02:34:21;;;;;;;75.93;27.93;;;;;;;;;;5091794;28;20476;-82
2021/09/16 02:36:48;;;;;;;70.27;18.37;;;;;;;;;;5091673;28;20448;-83
2021/09/16 02:39:15;;;;;;;72.50;17.27;;;;;;;;;;5092194;28;20457;-83
2021/09/16 02:41:42;;;;;;;70.50;21.30;;;;;;;;;;5091752;28;20450;-83
2021/09/16 02:44:10;;;;;;;77.07;24.67;;;;;;;;;;5091824;28;20532;-83
2021/09/16 02:46:37;;;;;;;71.00;18.37;;;;;;;;;;5091217;28;20964;-83
2021/09/16 02:49:05;;;;;;;71.87;17.30;;;;;;;;;;5092005;28;20456;-83
2021/09/16 02:51:32;;;;;;;71.20;17.60;;;;;;;;;;5091522;28;20449;-83
2021/09/16 02:53:59;;;;;;;70.50;17.27;;;;;;;;;;5091875;28;20795;-82
2021/09/16 02:56:26;;;;;;;72.57;18.50;;;;;;;;;;5092621;28;20998;-83
2021/09/16 02:58:53;;;;;;;73.87;17.43;;;;;;;;;;5095821;28;20447;-83
2021/09/16 03:01:20;;;;;;;72.30;18.37;;;;;;;;;;5095812;28;20762;-83
2021/09/16 03:03:47;;;;;;;69.10;15.73;;;;;;;;;;5095198;28;20485;-83
2021/09/16 03:06:16;;;;;;;68.60;13.53;;;;;;;;;;5095280;28;20465;-83
2021/09/16 03:08:43;;;;;;;73.83;21.80;;;;;;;;;;5096046;28;20445;-83
2021/09/16 03:11:10;;;;;;;72.40;20.20;;;;;;;;;;5096680;28;20557;-83
2021/09/16 03:13:38;;;;;;;68.10;14.13;;;;;;;;;;5095786;28;20446;-82
2021/09/16 03:16:05;;;;;;;71.57;15.67;;;;;;;;;;5095440;28;20481;-82
2021/09/16 03:18:32;;;;;;;68.30;15.73;;;;;;;;;;5095656;28;20838;-83
2021/09/16 03:21:00;;;;;;;68.47;16.00;;;;;;;;;;5095508;28;20454;-82
2021/09/16 03:23:28;;;;;;;71.60;16.23;;;;;;;;;;5095332;28;21008;-84
2021/09/16 03:25:55;;;;;;;73.20;16.57;;;;;;;;;;5095610;28;20466;-82
2021/09/16 03:28:22;;;;;;;70.97;17.10;;;;;;;;;;5094558;28;20449;-81
2021/09/16 03:30:49;;;;;;;70.50;15.47;;;;;;;;;;5095331;28;20458;-82
2021/09/16 03:33:16;;;;;;;70.17;16.27;;;;;;;;;;5095155;28;20466;-81
2021/09/16 03:35:44;;;;;;;70.30;13.20;;;;;;;;;;5095029;28;20481;-82
2021/09/16 03:38:11;;;;;;;70.40;14.63;;;;;;;;;;5094403;28;20451;-83
2021/09/16 03:40:39;;;;;;;69.87;14.70;;;;;;;;;;5094839;28;20452;-82
2021/09/16 03:43:06;;;;;;;70.07;16.50;;;;;;;;;;5094419;28;21305;-82
2021/09/16 03:45:34;;;;;;;70.47;15.03;;;;;;;;;;5094218;28;20465;-82
2021/09/16 03:48:01;;;;;;;73.53;19.93;;;;;;;;;;5093932;28;20450;-82
2021/09/16 03:50:28;;;;;;;71.17;16.40;;;;;;;;;;5094573;28;20443;-82
2021/09/16 03:52:55;;;;;;;71.40;18.40;;;;;;;;;;5094424;28;20475;-83
2021/09/16 03:55:22;;;;;;;71.27;16.10;;;;;;;;;;5094731;28;20465;-82
2021/09/16 03:57:51;;;;;;;71.67;17.70;;;;;;;;;;5095449;28;21007;-83
2021/09/16 04:00:18;;;;;;;72.10;15.67;;;;;;;;;;5094883;28;20457;-82
2021/09/16 04:02:45;;;;;;;98.27;87.40;;;;;;;;;;5093775;28;21148;-80
2021/09/16 04:05:12;;;;;;;70.30;18.70;;;;;;;;;;5094578;28;21295;-82
2021/09/16 04:07:39;;;;;;;72.60;17.13;;;;;;;;;;5092694;28;20452;-82
2021/09/16 04:10:07;;;;;;;68.77;13.87;;;;;;;;;;5094595;28;20453;-83
2021/09/16 04:12:34;;;;;;;69.37;13.33;;;;;;;;;;5082551;28;20442;-81
2021/09/16 04:15:03;;;;;;;70.17;15.77;;;;;;;;;;5093829;28;20477;-81
2021/09/16 04:17:30;;;;;;;72.37;16.00;;;;;;;;;;5093329;28;20458;-81
2021/09/16 04:19:58;;;;;;;73.87;14.50;;;;;;;;;;5094094;28;20966;-82
2021/09/16 04:22:25;;;;;;;74.60;15.63;;;;;;;;;;5093596;28;20964;-81
2021/09/16 04:24:52;;;;;;;72.80;14.40;;;;;;;;;;5093974;28;20472;-81
2021/09/16 04:27:19;;;;;;;72.10;15.93;;;;;;;;;;5093205;28;20450;-80
2021/09/16 04:29:46;;;;;;;72.20;14.80;;;;;;;;;;5093454;28;20456;-79
2021/09/16 04:32:15;;;;;;;74.00;12.77;;;;;;;;;;5093458;28;20452;-79
2021/09/16 04:34:42;;;;;;;72.00;20.37;;;;;;;;;;5081124;28;20827;-79
2021/09/16 04:37:09;;;;;;;71.23;18.20;;;;;;;;;;5092990;28;20454;-79
2021/09/16 04:39:36;;;;;;;75.20;14.80;;;;;;;;;;5069855;28;20516;-80
2021/09/16 04:42:05;;;;;;;70.00;12.87;;;;;;;;;;5093119;28;20476;-81
2021/09/16 04:44:32;;;;;;;71.60;15.60;;;;;;;;;;5086626;28;20950;-80
2021/09/16 04:46:59;;;;;;;76.40;18.07;;;;;;;;;;5091465;28;20465;-80
2021/09/16 04:49:28;;;;;;;75.37;18.67;;;;;;;;;;5093418;28;20450;-81
2021/09/16 04:51:55;;;;;;;74.50;17.93;;;;;;;;;;5093522;28;20446;-80
2021/09/16 04:54:22;;;;;;;71.20;16.33;;;;;;;;;;5092972;28;20477;-79
2021/09/16 04:56:51;;;;;;;71.37;14.83;;;;;;;;;;5092284;28;20532;-79
2021/09/16 04:59:18;;;;;;;71.73;15.70;;;;;;;;;;5092984;28;20939;-80
2021/09/16 05:01:45;;;;;;;72.77;13.97;;;;;;;;;;5093287;28;20450;-79
2021/09/16 05:04:12;;;;;;;87.43;31.10;;;;;;;;;;5092895;28;20868;-80
2021/09/16 05:06:41;;;;;;;74.23;14.40;;;;;;;;;;5092490;28;20456;-79
2021/09/16 05:09:08;;;;;;;71.97;16.47;;;;;;;;;;5093552;28;20446;-79
2021/09/16 05:11:40;;;;;;;72.43;14.67;;;;;;;;;;5095302;28;20469;-80
2021/09/16 05:14:08;;;;;;;71.70;15.40;;;;;;;;;;5094155;28;21044;-79
2021/09/16 05:16:35;;;;;;;72.73;15.20;;;;;;;;;;5092888;28;20456;-79
2021/09/16 05:19:03;;;;;;;72.27;16.20;;;;;;;;;;5093639;28;20448;-80
2021/09/16 05:21:30;;;;;;;71.77;12.03;;;;;;;;;;5093184;28;20475;-80
2021/09/16 05:23:59;;;;;;;77.50;18.03;;;;;;;;;;5093487;28;20484;-79
2021/09/16 05:26:26;;;;;;;77.70;20.23;;;;;;;;;;5092810;28;20455;-79
2021/09/16 05:28:53;;;;;;;76.50;15.93;;;;;;;;;;5093717;28;20459;-80
2021/09/16 05:31:20;;;;;;;74.00;17.97;;;;;;;;;;5093346;28;20451;-79
2021/09/16 05:33:47;;;;;;;78.30;19.87;;;;;;;;;;5093610;28;20442;-80
2021/09/16 05:36:14;;;;;;;72.47;16.80;;;;;;;;;;5100980;22;20601;-86
2021/09/16 05:38:41;;;;;;;78.17;18.80;;;;;;;;;;5072306;28;20445;-86
2021/09/16 05:41:10;;;;;;;76.17;19.67;;;;;;;;;;5071720;28;20461;-87
2021/09/16 05:43:37;;;;;;;73.33;15.27;;;;;;;;;;5072156;28;20864;-87
2021/09/16 05:46:04;;;;;;;82.53;30.60;;;;;;;;;;5084923;28;20487;-87
2021/09/16 05:48:32;;;;;;;73.07;17.83;;;;;;;;;;5091713;28;20446;-87
2021/09/16 05:50:59;;;;;;;77.90;22.50;;;;;;;;;;5088927;28;20473;-87
2021/09/16 05:53:26;;;;;;;79.10;24.27;;;;;;;;;;5072370;28;20439;-86
2021/09/16 05:55:53;;;;;;;76.13;16.60;;;;;;;;;;5071572;28;21026;-86
2021/09/16 05:58:22;;;;;;;74.63;16.83;;;;;;;;;;5071593;28;20457;-87
2021/09/16 06:00:49;;;;;;;77.60;19.63;;;;;;;;;;5074089;28;20513;-87
2021/09/16 06:03:16;;;;;;;74.00;18.17;;;;;;;;;;5089748;28;20478;-87
2021/09/16 06:05:43;;;;;;;76.70;20.00;;;;;;;;;;5094235;28;20478;-87
2021/09/16 06:08:10;;;;;;;74.00;20.47;;;;;;;;;;5077246;28;20530;-88
2021/09/16 06:10:37;;;;;;;80.17;25.80;;;;;;;;;;5090657;28;20445;-87
2021/09/16 06:13:04;;;;;;;78.70;17.27;;;;;;;;;;5079278;28;20981;-86
2021/09/16 06:15:33;;;;;;;80.90;24.57;;;;;;;;;;5083956;28;21014;-86
2021/09/16 06:18:00;;;;;;;77.13;16.13;;;;;;;;;;5085712;28;20451;-86
2021/09/16 06:20:27;;;;;;;75.23;19.17;;;;;;;;;;5075867;28;20941;-86
2021/09/16 06:22:54;;;;;;;76.73;16.53;;;;;;;;;;5087697;28;20451;-86
2021/09/16 06:25:21;;;;;;;72.67;17.53;;;;;;;;;;5094525;28;20468;-87
2021/09/16 06:27:49;;;;;;;76.90;20.73;;;;;;;;;;5087335;28;20446;-86
2021/09/16 06:30:16;;;;;;;73.90;17.07;;;;;;;;;;5077770;28;20465;-87
2021/09/16 06:32:48;;;;;;;79.20;19.93;;;;;;;;;;5082545;28;20449;-86
2021/09/16 06:35:15;;;;;;;79.07;23.97;;;;;;;;;;5100824;28;20478;-86
2021/09/16 06:37:42;;;;;;;74.00;18.83;;;;;;;;;;5088067;28;20451;-86
2021/09/16 06:40:10;;;;;;;78.83;19.57;;;;;;;;;;5092592;28;20449;-86
2021/09/16 06:42:37;;;;;;;78.13;19.27;;;;;;;;;;5107939;28;20524;-86
2021/09/16 06:45:05;;;;;;;75.83;19.40;;;;;;;;;;5094821;28;20506;-86
2021/09/16 06:47:32;;;;;;;87.43;35.17;;;;;;;;;;5095273;28;20481;-87
2021/09/16 06:50:01;;;;;;;75.13;16.93;;;;;;;;;;5096209;28;20969;-86
2021/09/16 06:52:28;;;;;;;75.83;14.87;;;;;;;;;;5095307;28;20442;-88
2021/09/16 06:54:57;;;;;;;75.00;17.10;;;;;;;;;;5096257;28;20478;-87
2021/09/16 06:57:24;;;;;;;73.47;21.67;;;;;;;;;;5096427;28;20530;-87
2021/09/16 06:59:52;;;;;;;76.43;24.73;;;;;;;;;;5096575;28;20456;-86
2021/09/16 07:02:19;;;;;;;71.60;16.50;;;;;;;;;;5088783;28;20452;-87
2021/09/16 07:04:46;;;;;;;76.40;24.30;;;;;;;;;;5092522;28;20492;-87
2021/09/16 07:07:15;;;;;;;78.40;24.13;;;;;;;;;;5094666;28;20976;-88
2021/09/16 07:09:42;;;;;;;76.30;15.40;;;;;;;;;;5071553;28;20468;-86
2021/09/16 07:12:09;;;;;;;81.10;22.93;;;;;;;;;;5083440;28;20477;-88
2021/09/16 07:14:36;;;;;;;73.70;18.17;;;;;;;;;;5082014;28;20453;-87
2021/09/16 07:17:04;;;;;;;80.43;26.20;;;;;;;;;;5084861;28;20486;-88
2021/09/16 07:19:31;;;;;;;78.93;24.70;;;;;;;;;;5088087;28;20449;-87
2021/09/16 07:21:58;;;;;;;75.90;16.20;;;;;;;;;;5077419;28;20449;-87
2021/09/16 07:24:27;;;;;;;77.97;19.03;;;;;;;;;;5086109;28;20491;-87
2021/09/16 07:26:54;;;;;;;75.73;19.53;;;;;;;;;;5089164;28;20989;-87
2021/09/16 07:29:22;;;;;;;74.10;22.00;;;;;;;;;;5081141;28;20470;-86
2021/09/16 07:31:49;;;;;;;75.23;21.90;;;;;;;;;;5092535;28;20807;-86
2021/09/16 07:34:18;;;;;;;74.80;19.57;;;;;;;;;;5095408;28;20518;-86
2021/09/16 07:36:45;;;;;;;77.53;20.77;;;;;;;;;;5094304;28;20481;-86
2021/09/16 07:39:12;;;;;;;73.37;18.80;;;;;;;;;;5095764;28;20454;-87
2021/09/16 07:41:41;;;;;;;72.93;15.57;;;;;;;;;;5095402;28;20460;-87
2021/09/16 07:44:09;;;;;;;71.80;17.40;;;;;;;;;;5091907;28;20486;-88
2021/09/16 07:46:36;;;;;;;75.07;21.47;;;;;;;;;;5090394;28;20469;-87
2021/09/16 07:49:04;;;;;;;71.77;15.63;;;;;;;;;;5076395;28;20461;-87
2021/09/16 07:51:31;;;;;;;85.97;28.47;;;;;;;;;;5077593;28;20465;-87
2021/09/16 07:53:58;;;;;;;78.70;20.70;;;;;;;;;;5087146;28;20823;-87
2021/09/16 07:56:25;;;;;;;81.83;34.23;;;;;;;;;;5091600;28;20470;-87
2021/09/16 07:58:53;;;;;;;79.57;31.37;;;;;;;;;;5093223;28;20934;-87
2021/09/16 08:01:21;;;;;;;76.87;20.53;;;;;;;;;;5087264;28;21021;-87
2021/09/16 08:03:48;;;;;;;83.17;38.17;;;;;;;;;;5093898;28;20470;-87
2021/09/16 08:06:16;;;;;;;73.57;19.20;;;;;;;;;;5075909;28;20470;-86
2021/09/16 08:08:43;;;;;;;77.60;22.17;;;;;;;;;;5057145;28;20976;-87
2021/09/16 08:11:10;;;;;;;73.27;19.50;;;;;;;;;;5094575;28;20872;-86
2021/09/16 08:13:37;;;;;;;76.87;17.37;;;;;;;;;;5094466;28;20456;-87
2021/09/16 08:16:06;;;;;;;76.60;22.83;;;;;;;;;;5083961;28;20493;-87
2021/09/16 08:18:33;;;;;;;79.57;20.60;;;;;;;;;;5076820;28;20454;-88
2021/09/16 08:21:00;;;;;;;74.20;18.83;;;;;;;;;;5090503;28;20460;-86
2021/09/16 08:23:27;;;;;;;72.90;16.13;;;;;;;;;;5088609;28;20541;-87
2021/09/16 08:25:54;;;;;;;75.37;16.27;;;;;;;;;;5094219;28;20477;-88
2021/09/16 08:28:21;;;;;;;72.10;16.20;;;;;;;;;;5089028;28;20511;-87
2021/09/16 08:30:48;;;;;;;76.40;21.23;;;;;;;;;;5077149;28;20446;-87
2021/09/16 08:33:17;;;;;;;74.10;21.10;;;;;;;;;;5087201;28;20446;-88
2021/09/16 08:35:44;;;;;;;77.83;21.60;;;;;;;;;;5089667;28;20485;-89
2021/09/16 08:38:14;;;;;;;73.30;18.13;;;;;;;;;;5097168;28;21080;-87
2021/09/16 08:40:41;;;;;;;78.20;26.63;;;;;;;;;;5093113;28;20485;-87
2021/09/16 08:43:09;;;;;;;75.43;18.80;;;;;;;;;;5093607;28;20478;-89
2021/09/16 08:45:36;;;;;;;71.70;15.97;;;;;;;;;;5085847;28;20494;-88
2021/09/16 08:48:04;;;;;;;76.40;21.33;;;;;;;;;;5091138;28;20441;-88
2021/09/16 08:50:32;;;;;;;77.03;19.33;;;;;;;;;;5088821;28;20729;-89
2021/09/16 08:53:00;;;;;;;78.10;19.57;;;;;;;;;;5091177;28;20480;-88
2021/09/16 08:55:28;;;;;;;77.93;17.40;;;;;;;;;;5089893;28;20459;-88
2021/09/16 08:57:56;;;;;;;71.83;15.30;;;;;;;;;;5087943;28;20453;-88
2021/09/16 09:00:24;;;;;;;75.00;15.87;;;;;;;;;;5078867;28;20450;-88
2021/09/16 09:02:51;;;;;;;79.47;18.60;;;;;;;;;;5090891;28;20496;-88
2021/09/16 09:05:19;;;;;;;71.50;17.20;;;;;;;;;;5093883;28;20522;-88
2021/09/16 09:07:48;;;;;;;76.40;20.67;;;;;;;;;;5083440;28;20863;-88
2021/09/16 09:10:30;;;;;;;73.40;19.10;;;;;;;;;;5074945;28;20525;-88
2021/09/16 09:12:58;;;;;;;69.90;15.23;;;;;;;;;;5078049;28;20823;-88
2021/09/16 09:15:25;;;;;;;77.17;17.97;;;;;;;;;;5081375;28;20462;-87
2021/09/16 09:18:03;;;;;;;76.73;16.90;;;;;;;;;;5081654;28;20981;-88
2021/09/16 09:20:30;;;;;;;75.03;14.43;;;;;;;;;;5082657;28;20434;-89
2021/09/16 09:23:21;;;;;;;72.80;17.13;;;;;;;;;;5072612;28;20442;-88
2021/09/16 09:25:49;;;;;;;71.73;16.37;;;;;;;;;;5081423;28;20494;-88
2021/09/16 09:28:26;;;;;;;70.83;14.20;;;;;;;;;;5082418;28;20453;-86
2021/09/16 09:30:53;;;;;;;74.77;21.67;;;;;;;;;;5082413;28;20452;-88
2021/09/16 09:33:27;;;;;;;73.50;18.90;;;;;;;;;;5081010;28;20459;-88
2021/09/16 09:35:54;;;;;;;97.50;80.37;;;;;;;;;;5092165;28;21002;-89
2021/09/16 09:38:24;;;;;;;74.23;24.83;;;;;;;;;;5087055;28;20435;-87
2021/09/16 09:40:52;;;;;;;72.23;16.57;;;;;;;;;;5072274;28;20826;-89
2021/09/16 09:43:23;;;;;;;76.97;15.07;;;;;;;;;;5072382;28;20450;-88
2021/09/16 09:45:58;;;;;;;79.60;27.03;;;;;;;;;;5074397;28;21000;-87
2021/09/16 09:48:25;;;;;;;78.87;23.83;;;;;;;;;;5091420;28;20452;-88
2021/09/16 09:50:53;;;;;;;79.63;26.20;;;;;;;;;;5093441;28;20457;-87
2021/09/16 09:53:20;;;;;;;70.90;16.17;;;;;;;;;;5085630;28;20830;-88
2021/09/16 09:55:51;;;;;;;79.10;28.93;;;;;;;;;;5072899;28;20461;-87
2021/09/16 09:58:30;;;;;;;68.80;14.67;;;;;;;;;;5070760;28;20449;-88
2021/09/16 10:00:57;;;;;;;71.07;12.17;;;;;;;;;;5071414;28;20453;-88
2021/09/16 10:03:28;;;;;;;74.07;22.67;;;;;;;;;;5105228;28;20940;-86
2021/09/16 10:05:55;;;;;;;74.80;20.33;;;;;;;;;;5101069;28;20498;-87
2021/09/16 10:08:23;;;;;;;76.10;21.97;;;;;;;;;;5093292;28;20481;-88
2021/09/16 10:10:52;;;;;;;77.83;26.57;;;;;;;;;;5092473;28;20442;-88
2021/09/16 10:13:20;;;;;;;99.17;76.97;;;;;;;;;;5091820;28;20454;-88
2021/09/16 10:15:47;;;;;;;72.47;27.20;;;;;;;;;;5088894;28;20990;-88
2021/09/16 10:18:15;;;;;;;74.93;23.93;;;;;;;;;;5086235;28;20450;-88
2021/09/16 10:20:42;;;;;;;74.47;22.53;;;;;;;;;;5091825;28;20876;-87
2021/09/16 10:23:10;;;;;;;69.90;15.90;;;;;;;;;;5084787;28;20466;-89
2021/09/16 10:25:44;;;;;;;68.53;13.33;;;;;;;;;;5080772;28;20495;-89
2021/09/16 10:28:13;;;;;;;71.83;23.47;;;;;;;;;;5080927;28;20893;-88
2021/09/16 10:30:41;;;;;;;76.63;19.87;;;;;;;;;;5091232;28;20456;-89
2021/09/16 10:33:11;;;;;;;69.90;16.67;;;;;;;;;;5100604;28;20480;-88
2021/09/16 10:35:39;;;;;;;72.50;27.87;;;;;;;;;;5086322;28;20956;-88
2021/09/16 10:38:20;;;;;;;71.10;18.30;;;;;;;;;;5080971;28;20447;-88
2021/09/16 10:40:47;;;;;;;72.33;16.97;;;;;;;;;;5073408;28;20447;-87
2021/09/16 10:43:22;;;;;;;74.53;28.40;;;;;;;;;;5072392;28;20855;-87
2021/09/16 10:45:50;;;;;;;80.37;43.70;;;;;;;;;;5076753;28;20997;-88
2021/09/16 10:48:32;;;;;;;80.20;36.03;;;;;;;;;;5082205;28;20478;-88
2021/09/16 10:51:04;;;;;;;84.03;42.00;;;;;;;;;;5081900;28;20473;-87
2021/09/16 10:53:36;;;;;;;72.87;23.63;;;;;;;;;;5079087;28;20450;-88
2021/09/16 10:56:03;;;;;;;68.20;19.47;;;;;;;;;;5080472;28;20521;-87
2021/09/16 10:58:32;;;;;;;71.93;21.73;;;;;;;;;;5078309;28;20446;-88
2021/09/16 11:00:59;;;;;;;71.80;21.70;;;;;;;;;;5082803;28;20452;-88
2021/09/16 11:03:26;;;;;;;67.93;20.40;;;;;;;;;;5079583;28;20585;-88
2021/09/16 11:05:55;;;;;;;74.97;33.20;;;;;;;;;;5082519;28;20868;-88
2021/09/16 11:08:24;;;;;;;82.90;42.57;;;;;;;;;;5079107;28;20454;-86
2021/09/16 11:10:57;;;;;;;81.13;37.27;;;;;;;;;;5081734;28;20443;-87
2021/09/16 11:13:36;;;;;;;73.63;30.90;;;;;;;;;;5080042;28;20451;-87
2021/09/16 11:16:03;;;;;;;69.37;23.17;;;;;;;;;;5080840;28;20474;-89
2021/09/16 11:18:30;;;;;;;73.70;38.20;;;;;;;;;;5080491;28;20509;-87
2021/09/16 11:20:58;;;;;;;78.70;39.13;;;;;;;;;;5080661;28;20458;-86
2021/09/16 11:23:34;;;;;;;85.07;53.47;;;;;;;;;;5090540;28;20458;-87
2021/09/16 11:26:01;;;;;;;71.93;32.10;;;;;;;;;;5094889;28;20489;-90
2021/09/16 11:28:28;;;;;;;95.87;69.63;;;;;;;;;;5095549;28;20450;-89
2021/09/16 11:30:57;;;;;;;84.10;44.23;;;;;;;;;;5096420;28;20448;-87
2021/09/16 11:33:24;;;;;;;326.73;307.23;;;;;;;;;;5097487;28;20453;-87
2021/09/16 11:35:51;;;;;;;126.30;113.93;;;;;;;;;;5097208;28;20484;-88
2021/09/16 11:38:19;;;;;;;144.43;131.60;;;;;;;;;;5089025;28;20443;-88
2021/09/16 11:40:47;;;;;;;96.97;61.03;;;;;;;;;;5079233;28;20989;-85
2021/09/16 11:43:15;;;;;;;84.37;39.23;;;;;;;;;;5088619;28;20457;-86
2021/09/16 11:45:43;;;;;;;109.83;96.97;;;;;;;;;;5087720;28;20500;-87
2021/09/16 11:48:13;;;;;;;98.90;88.10;;;;;;;;;;5077666;28;21211;-85
2021/09/16 11:50:42;;;;;;;90.77;64.43;;;;;;;;;;5092810;28;20454;-88
2021/09/16 11:53:10;;;;;;;97.03;79.93;;;;;;;;;;5094380;28;20449;-87
2021/09/16 11:55:38;;;;;;;81.17;43.00;;;;;;;;;;5090590;28;20477;-88
2021/09/16 11:58:14;;;;;;;86.33;50.40;;;;;;;;;;5085258;28;20977;-87
2021/09/16 12:00:42;;;;;;;129.77;117.17;;;;;;;;;;5098775;28;20492;-88
2021/09/16 12:03:10;;;;;;;139.87;127.40;;;;;;;;;;5074269;28;20450;-86
2021/09/16 12:05:40;;;;;;;118.47;106.57;;;;;;;;;;5076506;28;20588;-87
2021/09/16 12:08:09;;;;;;;85.50;51.23;;;;;;;;;;5080120;28;20455;-87
2021/09/16 12:10:40;;;;;;;101.67;85.67;;;;;;;;;;5082680;28;20455;-86
2021/09/16 12:13:08;;;;;;;161.97;148.43;;;;;;;;;;5085318;28;20449;-87
2021/09/16 12:15:36;;;;;;;118.83;107.33;;;;;;;;;;5086017;28;20491;-86
2021/09/16 12:18:03;;;;;;;172.13;158.00;;;;;;;;;;5074788;28;20466;-87
2021/09/16 12:20:31;;;;;;;138.00;121.93;;;;;;;;;;5085678;28;20450;-86
2021/09/16 12:22:59;;;;;;;151.70;138.57;;;;;;;;;;5080811;28;20538;-88
2021/09/16 12:25:27;;;;;;;141.67;128.70;;;;;;;;;;5119215;28;20500;-87
2021/09/16 12:28:03;;;;;;;120.70;108.10;;;;;;;;;;5100722;28;20565;-89
2021/09/16 12:30:35;;;;;;;126.03;113.93;;;;;;;;;;5084177;28;20831;-87
2021/09/16 12:33:02;;;;;;;140.67;127.20;;;;;;;;;;5079392;28;20450;-86
2021/09/16 12:35:29;;;;;;;159.43;145.80;;;;;;;;;;5082765;28;20474;-88
2021/09/16 12:38:05;;;;;;;173.37;158.37;;;;;;;;;;5091031;28;20450;-87
2021/09/16 12:40:33;;;;;;;1999.90;999.90;;;;;;;;;;5084000;28;20497;-87
2021/09/16 12:43:07;;;;;;;1999.90;999.90;;;;;;;;;;5094755;28;20486;-85
2021/09/16 12:45:34;;;;;;;1999.90;999.90;;;;;;;;;;5091814;28;20482;-85
2021/09/16 12:48:01;;;;;;;1999.90;999.90;;;;;;;;;;5076091;28;20451;-86
2021/09/16 12:50:28;;;;;;;1999.90;999.90;;;;;;;;;;5085537;28;20442;-86
2021/09/16 12:53:00;;;;;;;1999.90;999.90;;;;;;;;;;5089290;28;20449;-87
2021/09/16 12:55:29;;;;;;;1999.90;999.90;;;;;;;;;;5082222;28;20474;-87
2021/09/16 12:58:06;;;;;;;1999.90;999.90;;;;;;;;;;5079680;28;20457;-87
2021/09/16 13:00:33;;;;;;;91.27;27.03;;;;;;;;;;5089256;28;20442;-86
2021/09/16 13:03:02;;;;;;;1999.90;999.90;;;;;;;;;;5078879;28;21017;-86
2021/09/16 13:05:31;;;;;;;1440.13;766.63;;;;;;;;;;5083237;28;20483;-88
2021/09/16 13:08:05;;;;;;;1999.90;999.90;;;;;;;;;;5083752;28;20533;-87
2021/09/16 13:10:37;;;;;;;1999.90;999.90;;;;;;;;;;5074219;28;20447;-87
2021/09/16 13:13:06;;;;;;;372.63;350.10;;;;;;;;;;5073714;28;20538;-85
2021/09/16 13:15:35;;;;;;;815.13;470.37;;;;;;;;;;5078489;28;21009;-87
2021/09/16 13:18:02;;;;;;;1999.90;999.90;;;;;;;;;;5084428;28;20459;-86
2021/09/16 13:20:29;;;;;;;483.10;452.77;;;;;;;;;;5073754;28;20958;-86
2021/09/16 13:22:56;;;;;;;1999.90;999.90;;;;;;;;;;5088255;28;21007;-85
2021/09/16 13:25:24;;;;;;;1047.60;691.93;;;;;;;;;;5093143;28;20485;-85
2021/09/16 13:27:53;;;;;;;1999.90;999.90;;;;;;;;;;5092844;28;20441;-85
2021/09/16 13:30:21;;;;;;;1999.90;999.90;;;;;;;;;;5092955;28;20442;-87
2021/09/16 13:32:48;;;;;;;591.83;555.40;;;;;;;;;;5093578;28;20533;-87
2021/09/16 13:35:17;;;;;;;1999.90;999.90;;;;;;;;;;5080565;28;20479;-86
2021/09/16 13:37:44;;;;;;;1999.90;999.90;;;;;;;;;;5071881;28;20457;-86
2021/09/16 13:40:13;;;;;;;1999.90;999.90;;;;;;;;;;5072755;28;20447;-86
2021/09/16 13:42:40;;;;;;;1999.90;999.90;;;;;;;;;;5080368;28;20454;-85
2021/09/16 13:45:10;;;;;;;1999.90;999.90;;;;;;;;;;5075720;28;20477;-88
2021/09/16 13:47:38;;;;;;;1999.90;999.90;;;;;;;;;;5094950;28;20447;-85
2021/09/16 13:50:06;;;;;;;1999.90;999.90;;;;;;;;;;5084526;28;20443;-86
2021/09/16 13:52:33;;;;;;;1999.90;999.90;;;;;;;;;;5086131;28;20450;-86
2021/09/16 13:55:00;;;;;;;1999.90;999.90;;;;;;;;;;5077394;28;20842;-87
2021/09/16 13:57:27;;;;;;;1999.90;999.90;;;;;;;;;;5074551;28;20443;-86
2021/09/16 13:59:54;;;;;;;1999.90;999.90;;;;;;;;;;5085978;28;20457;-87
2021/09/16 14:02:23;;;;;;;1999.90;999.90;;;;;;;;;;5078794;28;20445;-86
2021/09/16 14:04:50;;;;;;;1999.90;999.90;;;;;;;;;;5073992;28;20443;-86
2021/09/16 14:07:17;;;;;;;1999.90;999.90;;;;;;;;;;5074532;28;20481;-86
2021/09/16 14:09:44;;;;;;;1999.90;999.90;;;;;;;;;;5079397;28;21092;-87
2021/09/16 14:12:12;;;;;;;1999.90;999.90;;;;;;;;;;5082752;28;20446;-87
2021/09/16 14:14:39;;;;;;;1999.90;999.90;;;;;;;;;;5081199;28;20454;-88
2021/09/16 14:17:06;;;;;;;1999.90;999.90;;;;;;;;;;5081505;28;20443;-87